createdAt,value
2023-07-18T04:15:00.340Z,1016.51
2023-07-18T04:16:00.481Z,1016.52
2023-07-18T04:17:00.601Z,1016.45
2023-07-18T04:18:00.773Z,1016.51
2023-07-18T04:19:00.850Z,1016.50
2023-07-18T04:20:00.968Z,1016.49
2023-07-18T04:21:01.068Z,1016.44
2023-07-18T04:22:01.189Z,1016.35
2023-07-18T04:23:02.377Z,1016.39
2023-07-18T04:24:01.484Z,1016.37
2023-07-18T04:25:01.591Z,1016.36
2023-07-18T04:26:01.665Z,1016.36
2023-07-18T04:27:01.798Z,1016.38
2023-07-18T04:28:01.960Z,1016.36
2023-07-18T04:29:02.038Z,1016.36
2023-07-18T04:30:02.241Z,1016.35
2023-07-18T04:31:03.338Z,1016.28
2023-07-18T04:32:02.526Z,1016.27
2023-07-18T04:33:02.640Z,1016.30
2023-07-18T04:34:02.757Z,1016.24
2023-07-18T04:35:02.850Z,1016.26
2023-07-18T04:36:03.005Z,1016.31
2023-07-18T04:37:03.139Z,1016.27
2023-07-18T04:38:03.226Z,1016.29
2023-07-18T04:39:03.387Z,1016.28
2023-07-18T04:40:03.504Z,1016.26
2023-07-18T04:41:03.607Z,1016.25
2023-07-18T04:42:03.764Z,1016.26
2023-07-18T04:43:03.863Z,1016.24
2023-07-18T04:44:04.003Z,1016.23
2023-07-18T04:45:04.153Z,1016.24
2023-07-18T04:46:04.349Z,1016.22
2023-07-18T04:47:04.473Z,1016.26
2023-07-18T04:48:04.681Z,1016.24
2023-07-18T04:49:04.714Z,1016.25
2023-07-18T04:50:04.837Z,1016.29
2023-07-18T04:51:04.987Z,1016.29
2023-07-18T04:52:05.066Z,1016.25
2023-07-18T04:53:05.208Z,1016.28
2023-07-18T04:54:05.359Z,1016.27
2023-07-18T04:55:05.465Z,1016.24
2023-07-18T04:56:05.626Z,1016.24
2023-07-18T04:57:06.761Z,1016.29
2023-07-18T04:58:05.824Z,1016.28
2023-07-18T04:59:05.957Z,1016.26
2023-07-18T05:00:06.105Z,1016.28
2023-07-18T05:01:06.292Z,1016.32
2023-07-18T05:02:06.386Z,1016.34
2023-07-18T05:03:06.659Z,1016.31
2023-07-18T05:04:06.687Z,1016.38
2023-07-18T05:05:06.787Z,1016.31
2023-07-18T05:06:06.939Z,1016.36
2023-07-18T05:07:07.086Z,1016.38
2023-07-18T05:08:07.221Z,1016.37
2023-07-18T05:09:07.334Z,1016.33
2023-07-18T05:10:07.454Z,1016.40
2023-07-18T05:11:07.619Z,1016.36
2023-07-18T05:12:07.746Z,1016.39
2023-07-18T05:13:07.889Z,1016.42
2023-07-18T05:14:08.040Z,1016.43
2023-07-18T05:15:08.193Z,1016.42
2023-07-18T05:16:08.405Z,1016.45
2023-07-18T05:17:08.419Z,1016.41
2023-07-18T05:18:08.555Z,1016.48
2023-07-18T05:19:08.649Z,1016.49
2023-07-18T05:20:08.769Z,1016.42
2023-07-18T05:21:09.569Z,1016.44
2023-07-18T05:22:09.020Z,1016.42
2023-07-18T05:23:09.250Z,1016.47
2023-07-18T05:24:09.263Z,1016.48
2023-07-18T05:25:09.412Z,1016.51
2023-07-18T05:26:09.541Z,1016.50
2023-07-18T05:27:09.659Z,1016.46
2023-07-18T05:28:09.784Z,1016.47
2023-07-18T05:29:09.908Z,1016.44
2023-07-18T05:30:10.040Z,1016.51
2023-07-18T05:31:10.228Z,1016.52
2023-07-18T05:32:10.334Z,1016.57
2023-07-18T05:33:10.526Z,1016.52
2023-07-18T05:34:10.579Z,1016.54
2023-07-18T05:35:10.714Z,1016.50
2023-07-18T05:36:10.822Z,1016.54
2023-07-18T05:37:10.963Z,1016.53
2023-07-18T05:38:11.097Z,1016.54
2023-07-18T05:39:11.214Z,1016.51
2023-07-18T05:40:11.343Z,1016.49
2023-07-18T05:41:11.467Z,1016.48
2023-07-18T05:42:11.635Z,1016.45
2023-07-18T05:43:11.732Z,1016.46
2023-07-18T05:44:11.855Z,1016.48
2023-07-18T05:45:12.021Z,1016.48
2023-07-18T05:46:12.190Z,1016.41
2023-07-18T05:47:12.286Z,1016.51
2023-07-18T05:48:12.427Z,1016.49
2023-07-18T05:49:12.542Z,1016.47
2023-07-18T05:50:12.678Z,1016.44
2023-07-18T05:51:12.813Z,1016.45
2023-07-18T05:52:12.951Z,1016.40
2023-07-18T05:53:13.041Z,1016.40
2023-07-18T05:54:13.161Z,1016.37
2023-07-18T05:55:13.455Z,1016.41
2023-07-18T05:56:13.392Z,1016.42
2023-07-18T05:57:13.569Z,1016.38
2023-07-18T05:58:13.633Z,1016.43
2023-07-18T05:59:13.740Z,1016.45
2023-07-18T06:00:13.875Z,1016.47
2023-07-18T06:01:14.089Z,1016.44
2023-07-18T06:02:14.123Z,1016.42
2023-07-18T06:03:14.323Z,1016.38
2023-07-18T06:04:14.399Z,1016.41
2023-07-18T06:05:14.491Z,1016.38
2023-07-18T06:06:14.624Z,1016.40
2023-07-18T06:07:14.711Z,1016.37
2023-07-18T06:08:14.855Z,1016.39
2023-07-18T06:09:14.996Z,1016.35
2023-07-18T06:10:15.113Z,1016.39
2023-07-18T06:11:15.230Z,1016.42
2023-07-18T06:12:15.382Z,1016.40
2023-07-18T06:13:15.511Z,1016.44
2023-07-18T06:15:31.239Z,1016.46
2023-07-18T06:16:31.276Z,1016.42
2023-07-18T06:17:31.412Z,1016.43
2023-07-18T06:18:31.532Z,1016.47
2023-07-18T06:19:31.647Z,1016.44
2023-07-18T06:20:31.781Z,1016.43
2023-07-18T06:21:31.935Z,1016.41
2023-07-18T06:22:32.112Z,1016.43
2023-07-18T06:23:32.181Z,1016.40
2023-07-18T06:24:32.323Z,1016.40
2023-07-18T06:25:32.431Z,1016.42
2023-07-18T06:26:32.540Z,1016.39
2023-07-18T06:27:32.654Z,1016.38
2023-07-18T06:28:32.769Z,1016.39
2023-07-18T06:29:32.883Z,1016.42
2023-07-18T06:30:33.021Z,1016.39
2023-07-18T06:31:33.239Z,1016.44
2023-07-18T06:32:33.306Z,1016.47
2023-07-18T06:33:33.381Z,1016.46
2023-07-18T06:34:33.508Z,1016.49
2023-07-18T06:35:33.655Z,1016.47
2023-07-18T06:36:33.923Z,1016.47
2023-07-18T06:37:33.924Z,1016.44
2023-07-18T06:38:34.041Z,1016.46
2023-07-18T06:39:34.149Z,1016.46
2023-07-18T06:40:34.272Z,1016.46
2023-07-18T06:41:34.396Z,1016.48
2023-07-18T06:42:34.499Z,1016.48
2023-07-18T06:43:34.654Z,1016.51
2023-07-18T06:44:34.825Z,1016.48
2023-07-18T06:45:34.964Z,1016.48
2023-07-18T06:46:35.088Z,1016.52
2023-07-18T06:47:35.282Z,1016.50
2023-07-18T06:48:35.369Z,1016.50
2023-07-18T06:49:35.505Z,1016.44
2023-07-18T06:50:35.684Z,1016.43
2023-07-18T06:51:35.789Z,1016.45
2023-07-18T06:52:36.750Z,1016.45
2023-07-18T06:53:36.088Z,1016.43
2023-07-18T06:54:36.152Z,1016.46
2023-07-18T06:55:36.276Z,1016.44
2023-07-18T06:56:36.395Z,1016.50
2023-07-18T06:57:36.574Z,1016.42
2023-07-18T06:58:36.721Z,1016.42
2023-07-18T06:59:36.849Z,1016.44
2023-07-18T07:00:37.026Z,1016.44
2023-07-18T07:01:37.126Z,1016.38
2023-07-18T07:02:37.276Z,1016.38
2023-07-18T07:03:37.429Z,1016.36
2023-07-18T07:04:37.470Z,1016.39
2023-07-18T07:05:37.602Z,1016.36
2023-07-18T07:06:37.724Z,1016.40
2023-07-18T07:07:38.580Z,1016.36
2023-07-18T07:08:37.986Z,1016.37
2023-07-18T07:09:38.140Z,1016.39
2023-07-18T07:10:38.298Z,1016.38
2023-07-18T07:11:38.386Z,1016.38
2023-07-18T07:12:38.541Z,1016.38
2023-07-18T07:13:38.692Z,1016.42
2023-07-18T07:14:38.815Z,1016.41
2023-07-18T07:15:38.956Z,1016.40
2023-07-18T07:16:39.073Z,1016.34
2023-07-18T07:17:39.196Z,1016.39
2023-07-18T07:18:39.309Z,1016.43
2023-07-18T07:19:39.434Z,1016.41
2023-07-18T07:20:39.559Z,1016.44
2023-07-18T07:21:39.690Z,1016.42
2023-07-18T07:22:39.836Z,1016.44
2023-07-18T07:23:39.928Z,1016.44
2023-07-18T07:24:40.037Z,1016.43
2023-07-18T07:25:40.167Z,1016.32
2023-07-18T07:26:40.285Z,1016.36
2023-07-18T07:27:40.394Z,1016.31
2023-07-18T07:28:40.523Z,1016.38
2023-07-18T07:29:40.648Z,1016.34
2023-07-18T07:30:40.808Z,1016.30
2023-07-18T07:31:40.943Z,1016.36
2023-07-18T07:32:41.100Z,1016.40
2023-07-18T07:33:41.217Z,1016.30
2023-07-18T07:34:42.696Z,1016.34
2023-07-18T07:35:41.484Z,1016.37
2023-07-18T07:36:41.633Z,1016.36
2023-07-18T07:37:41.793Z,1016.34
2023-07-18T07:38:41.878Z,1016.32
2023-07-18T07:39:42.003Z,1016.31
2023-07-18T07:40:42.120Z,1016.29
2023-07-18T07:41:42.267Z,1016.34
2023-07-18T07:42:42.401Z,1016.33
2023-07-18T07:43:42.524Z,1016.31
2023-07-18T07:44:42.681Z,1016.32
2023-07-18T07:45:42.806Z,1016.31
2023-07-18T07:46:43.051Z,1016.29
2023-07-18T07:47:43.129Z,1016.32
2023-07-18T07:48:43.213Z,1016.31
2023-07-18T07:49:43.302Z,1016.30
2023-07-18T07:50:43.451Z,1016.27
2023-07-18T07:51:43.573Z,1016.36
2023-07-18T07:52:43.700Z,1016.32
2023-07-18T07:53:43.835Z,1016.24
2023-07-18T07:54:43.959Z,1016.27
2023-07-18T07:55:44.080Z,1016.19
2023-07-18T07:56:44.210Z,1016.24
2023-07-18T07:57:44.304Z,1016.23
2023-07-18T07:58:51.673Z,1016.20
2023-07-18T07:59:45.590Z,1016.22
2023-07-18T08:00:44.710Z,1016.23
2023-07-18T08:01:44.949Z,1016.19
2023-07-18T08:02:45.008Z,1016.18
2023-07-18T08:03:45.142Z,1016.22
2023-07-18T08:04:45.317Z,1016.25
2023-07-18T08:05:45.406Z,1016.21
2023-07-18T08:06:45.531Z,1016.20
2023-07-18T08:07:45.639Z,1016.22
2023-07-18T08:08:45.762Z,1016.23
2023-07-18T08:09:45.889Z,1016.21
2023-07-18T08:10:46.007Z,1016.20
2023-07-18T08:11:46.110Z,1016.17
2023-07-18T08:12:46.248Z,1016.17
2023-07-18T08:13:46.362Z,1016.13
2023-07-18T08:14:46.510Z,1016.11
2023-07-18T08:15:46.646Z,1016.11
2023-07-18T08:16:46.858Z,1016.09
2023-07-18T08:17:46.998Z,1016.06
2023-07-18T08:18:47.072Z,1016.04
2023-07-18T08:19:47.207Z,1016.03
2023-07-18T08:20:47.321Z,1016.02
2023-07-18T08:21:47.482Z,1016.03
2023-07-18T08:22:47.757Z,1016.00
2023-07-18T08:23:47.754Z,1016.02
2023-07-18T08:24:47.869Z,1015.95
2023-07-18T08:25:48.037Z,1015.95
2023-07-18T08:26:48.145Z,1015.96
2023-07-18T08:27:48.296Z,1015.92
2023-07-18T08:28:48.490Z,1015.94
2023-07-18T08:29:48.560Z,1015.93
2023-07-18T08:30:48.697Z,1015.94
2023-07-18T08:31:48.894Z,1015.92
2023-07-18T08:32:48.994Z,1015.91
2023-07-18T08:33:49.096Z,1015.91
2023-07-18T08:34:49.263Z,1015.86
2023-07-18T08:35:49.360Z,1015.86
2023-07-18T08:36:49.490Z,1015.85
2023-07-18T08:37:49.585Z,1015.86
2023-07-18T08:38:50.861Z,1015.86
2023-07-18T08:39:49.883Z,1015.86
2023-07-18T08:40:50.011Z,1015.83
2023-07-18T08:41:50.153Z,1015.84
2023-07-18T08:42:50.237Z,1015.78
2023-07-18T08:43:50.406Z,1015.78
2023-07-18T08:44:50.564Z,1015.77
2023-07-18T08:45:50.774Z,1015.79
2023-07-18T08:46:50.866Z,1015.85
2023-07-18T08:47:51.004Z,1015.80
2023-07-18T08:48:51.096Z,1015.83
2023-07-18T08:49:51.217Z,1015.84
2023-07-18T08:50:51.352Z,1015.81
2023-07-18T08:51:51.494Z,1015.75
2023-07-18T08:52:51.657Z,1015.76
2023-07-18T08:53:51.784Z,1015.73
2023-07-18T08:54:51.976Z,1015.75
2023-07-18T08:55:52.097Z,1015.72
2023-07-18T08:56:52.236Z,1015.69
2023-07-18T08:57:52.358Z,1015.71
2023-07-18T08:58:52.500Z,1015.69
2023-07-18T08:59:52.585Z,1015.70
2023-07-18T09:00:52.722Z,1015.70
2023-07-18T09:01:52.905Z,1015.66
2023-07-18T09:02:52.938Z,1015.67
2023-07-18T09:03:54.022Z,1015.67
2023-07-18T09:04:53.221Z,1015.60
2023-07-18T09:05:53.384Z,1015.59
2023-07-18T09:06:53.555Z,1015.66
2023-07-18T09:07:53.654Z,1015.64
2023-07-18T09:08:53.836Z,1015.58
2023-07-18T09:09:53.924Z,1015.61
2023-07-18T09:10:54.068Z,1015.56
2023-07-18T09:11:54.194Z,1015.61
2023-07-18T09:12:54.332Z,1015.56
2023-07-18T09:13:54.473Z,1015.61
2023-07-18T09:14:54.621Z,1015.57
2023-07-18T09:15:54.746Z,1015.57
2023-07-18T09:16:54.957Z,1015.52
2023-07-18T09:17:55.076Z,1015.58
2023-07-18T09:18:55.162Z,1015.55
2023-07-18T09:19:55.313Z,1015.51
2023-07-18T09:20:55.449Z,1015.50
2023-07-18T09:21:55.581Z,1015.51
2023-07-18T09:22:55.752Z,1015.49
2023-07-18T09:23:55.840Z,1015.47
2023-07-18T09:24:56.020Z,1015.47
2023-07-18T09:25:56.147Z,1015.49
2023-07-18T09:26:56.259Z,1015.50
2023-07-18T09:27:56.386Z,1015.47
2023-07-18T09:28:56.523Z,1015.47
2023-07-18T09:29:56.699Z,1015.44
2023-07-18T09:30:56.812Z,1015.43
2023-07-18T09:31:56.993Z,1015.51
2023-07-18T09:32:57.846Z,1015.46
2023-07-18T09:33:57.207Z,1015.48
2023-07-18T09:34:57.506Z,1015.39
2023-07-18T09:35:57.456Z,1015.37
2023-07-18T09:36:57.558Z,1015.40
2023-07-18T09:37:57.685Z,1015.42
2023-07-18T09:38:57.807Z,1015.40
2023-07-18T09:39:57.963Z,1015.42
2023-07-18T09:40:58.073Z,1015.41
2023-07-18T09:41:58.269Z,1015.34
2023-07-18T09:42:58.401Z,1015.33
2023-07-18T09:44:22.503Z,1015.36
2023-07-18T09:45:04.103Z,1015.40
2023-07-18T09:45:59.800Z,1015.37
2023-07-18T09:46:58.929Z,1015.37
2023-07-18T09:47:59.129Z,1015.40
2023-07-18T09:49:04.087Z,1015.41
2023-07-18T09:50:00.353Z,1015.36
2023-07-18T09:50:59.459Z,1015.34
2023-07-18T09:51:59.605Z,1015.36
2023-07-18T09:52:59.760Z,1015.34
2023-07-18T09:53:59.855Z,1015.34
2023-07-18T09:54:59.966Z,1015.41
2023-07-18T09:56:00.077Z,1015.39
2023-07-18T09:57:00.214Z,1015.37
2023-07-18T09:58:00.353Z,1015.36
2023-07-18T09:59:00.468Z,1015.33
2023-07-18T10:00:00.624Z,1015.39
2023-07-18T10:01:00.792Z,1015.36
2023-07-18T10:02:00.926Z,1015.33
2023-07-18T10:03:01.113Z,1015.39
2023-07-18T10:04:01.293Z,1015.33
2023-07-18T10:05:01.359Z,1015.33
2023-07-18T10:06:01.503Z,1015.31
2023-07-18T10:07:01.611Z,1015.33
2023-07-18T10:08:01.727Z,1015.34
2023-07-18T10:09:01.906Z,1015.37
2023-07-18T10:10:02.076Z,1015.30
2023-07-18T10:11:02.196Z,1015.35
2023-07-18T10:12:02.329Z,1015.33
2023-07-18T10:13:02.515Z,1015.31
2023-07-18T10:14:02.612Z,1015.23
2023-07-18T10:15:02.767Z,1015.27
2023-07-18T10:16:02.928Z,1015.25
2023-07-18T10:17:03.042Z,1015.22
2023-07-18T10:18:03.153Z,1015.22
2023-07-18T10:29:32.106Z,1015.02
2023-07-18T10:30:32.184Z,1015.06
2023-07-18T10:31:32.354Z,1015.01
2023-07-18T10:32:32.538Z,1015.01
2023-07-18T10:33:32.611Z,1015.02
2023-07-18T10:34:32.724Z,1015.07
2023-07-18T10:35:32.847Z,1015.02
2023-07-18T10:36:32.959Z,1015.03
2023-07-18T10:37:33.170Z,1015.01
2023-07-18T10:38:33.194Z,1015.04
2023-07-18T10:39:33.361Z,1015.08
2023-07-18T10:40:33.502Z,1015.10
2023-07-18T10:41:33.651Z,1015.05
2023-07-18T10:42:33.780Z,1015.04
2023-07-18T10:43:33.932Z,1015.07
2023-07-18T10:44:34.080Z,1015.07
2023-07-18T10:45:34.254Z,1015.02
2023-07-18T10:46:34.328Z,1015.00
2023-07-18T10:47:34.519Z,1014.99
2023-07-18T10:48:34.569Z,1015.02
2023-07-18T10:49:34.728Z,1014.99
2023-07-18T10:50:34.858Z,1014.98
2023-07-18T10:51:34.977Z,1015.01
2023-07-18T10:52:35.088Z,1014.99
2023-07-18T10:53:35.236Z,1015.04
2023-07-18T10:54:35.378Z,1015.01
2023-07-18T10:55:35.498Z,1014.96
2023-07-18T10:56:35.637Z,1014.96
2023-07-18T10:57:35.739Z,1014.89
2023-07-18T10:58:35.868Z,1014.90
2023-07-18T10:59:36.031Z,1014.91
2023-07-18T11:00:36.177Z,1014.92
2023-07-18T11:01:36.310Z,1014.91
2023-07-18T11:02:36.518Z,1014.88
2023-07-18T11:03:36.573Z,1014.85
2023-07-18T11:04:36.708Z,1014.85
2023-07-18T11:05:36.794Z,1014.78
2023-07-18T11:06:36.929Z,1014.81
2023-07-18T11:07:37.132Z,1014.80
2023-07-18T11:08:37.240Z,1014.83
2023-07-18T11:09:37.300Z,1014.82
2023-07-18T11:10:37.470Z,1014.85
2023-07-18T11:11:37.637Z,1014.83
2023-07-18T11:12:37.755Z,1014.76
2023-07-18T11:13:37.956Z,1014.77
2023-07-18T11:14:37.995Z,1014.78
2023-07-18T11:15:38.154Z,1014.72
2023-07-18T11:16:38.286Z,1014.78
2023-07-18T11:17:38.441Z,1014.75
2023-07-18T11:18:38.588Z,1014.76
2023-07-18T11:19:38.723Z,1014.73
2023-07-18T11:20:38.854Z,1014.75
2023-07-18T11:21:39.012Z,1014.73
2023-07-18T11:22:39.212Z,1014.68
2023-07-18T11:23:39.254Z,1014.71
2023-07-18T11:24:39.434Z,1014.66
2023-07-18T11:25:39.541Z,1014.69
2023-07-18T11:26:39.642Z,1014.64
2023-07-18T11:27:39.838Z,1014.66
2023-07-18T11:28:39.934Z,1014.66
2023-07-18T11:29:40.082Z,1014.63
2023-07-18T11:30:40.288Z,1014.61
2023-07-18T11:31:41.904Z,1014.49
2023-07-18T11:32:40.631Z,1014.52
2023-07-18T11:33:40.679Z,1014.49
2023-07-18T11:34:40.791Z,1014.47
2023-07-18T11:35:40.938Z,1014.47
2023-07-18T11:36:41.090Z,1014.49
2023-07-18T11:37:42.839Z,1014.45
2023-07-18T11:38:41.344Z,1014.45
2023-07-18T11:39:41.448Z,1014.42
2023-07-18T11:40:41.571Z,1014.43
2023-07-18T11:41:41.778Z,1014.44
2023-07-18T11:42:41.867Z,1014.40
2023-07-18T11:43:41.987Z,1014.40
2023-07-18T11:44:42.185Z,1014.35
2023-07-18T11:45:42.320Z,1014.37
2023-07-18T11:46:42.471Z,1014.36
2023-07-18T11:47:42.626Z,1014.30
2023-07-18T11:48:42.816Z,1014.30
2023-07-18T11:49:42.891Z,1014.28
2023-07-18T11:50:42.986Z,1014.25
2023-07-18T11:51:43.098Z,1014.24
2023-07-18T11:52:43.236Z,1014.31
2023-07-18T11:53:43.427Z,1014.23
2023-07-18T11:54:43.516Z,1014.26
2023-07-18T11:55:43.669Z,1014.25
2023-07-18T11:56:43.794Z,1014.28
2023-07-18T11:57:43.895Z,1014.28
2023-07-18T11:58:44.052Z,1014.22
2023-07-18T11:59:44.145Z,1014.25
2023-07-18T12:00:44.320Z,1014.25
2023-07-18T12:01:44.530Z,1014.25
2023-07-18T12:02:44.568Z,1014.25
2023-07-18T12:03:44.760Z,1014.24
2023-07-18T12:04:44.824Z,1014.14
2023-07-18T12:05:44.963Z,1014.16
2023-07-18T12:06:45.212Z,1014.18
2023-07-18T12:07:45.233Z,1014.16
2023-07-18T12:08:45.362Z,1014.12
2023-07-18T12:09:45.547Z,1014.04
2023-07-18T12:10:50.360Z,1014.06
2023-07-18T12:11:46.825Z,1014.00
2023-07-18T12:12:45.930Z,1013.99
2023-07-18T12:13:46.073Z,1013.95
2023-07-18T12:14:46.205Z,1014.02
2023-07-18T12:15:46.309Z,1013.99
2023-07-18T12:16:46.554Z,1013.95
2023-07-18T12:17:46.674Z,1013.96
2023-07-18T12:18:46.732Z,1013.94
2023-07-18T12:19:46.905Z,1013.92
2023-07-18T12:20:47.068Z,1014.00
2023-07-18T12:21:47.117Z,1013.92
2023-07-18T12:22:47.252Z,1013.87
2023-07-18T12:23:47.370Z,1013.80
2023-07-18T12:24:47.459Z,1013.86
2023-07-18T12:25:47.582Z,1013.77
2023-07-18T12:26:47.686Z,1013.80
2023-07-18T12:27:47.801Z,1013.81
2023-07-18T12:28:47.915Z,1013.75
2023-07-18T12:29:48.036Z,1013.73
2023-07-18T12:30:48.195Z,1013.73
2023-07-18T12:31:48.356Z,1013.71
2023-07-18T12:32:48.484Z,1013.70
2023-07-18T12:33:48.498Z,1013.75
2023-07-18T12:34:48.635Z,1013.80
2023-07-18T12:35:48.755Z,1013.65
2023-07-18T12:36:48.890Z,1013.69
2023-07-18T12:37:48.962Z,1013.63
2023-07-18T12:38:49.143Z,1013.61
2023-07-18T12:39:49.259Z,1013.68
2023-07-18T12:40:49.358Z,1013.70
2023-07-18T12:41:49.527Z,1013.60
2023-07-18T12:42:49.634Z,1013.59
2023-07-18T12:43:49.827Z,1013.67
2023-07-18T12:44:49.961Z,1013.58
2023-07-18T12:45:50.081Z,1013.61
2023-07-18T12:46:50.235Z,1013.52
2023-07-18T12:47:50.349Z,1013.60
2023-07-18T12:48:51.046Z,1013.52
2023-07-18T12:50:50.718Z,1013.57
2023-07-18T12:51:50.861Z,1013.57
2023-07-18T12:52:51.016Z,1013.61
2023-07-18T12:53:51.122Z,1013.51
2023-07-18T12:54:51.286Z,1013.49
2023-07-18T12:55:51.390Z,1013.43
2023-07-18T12:56:51.558Z,1013.38
2023-07-18T12:57:51.669Z,1013.45
2023-07-18T12:58:51.832Z,1013.44
2023-07-18T12:59:51.945Z,1013.42
2023-07-18T13:00:52.060Z,1013.41
2023-07-18T13:01:52.191Z,1013.40
2023-07-18T13:02:52.395Z,1013.35
2023-07-18T13:03:52.659Z,1013.42
2023-07-18T13:04:52.598Z,1013.42
2023-07-18T13:05:52.719Z,1013.44
2023-07-18T13:06:52.884Z,1013.48
2023-07-18T13:07:52.988Z,1013.39
2023-07-18T13:08:53.159Z,1013.22
2023-07-18T13:09:53.232Z,1013.28
2023-07-18T13:10:53.379Z,1013.32
2023-07-18T13:11:53.495Z,1013.32
2023-07-18T13:14:09.165Z,1013.32
2023-07-18T13:15:09.260Z,1013.24
2023-07-18T13:16:09.458Z,1013.20
2023-07-18T13:17:09.527Z,1013.23
2023-07-18T13:18:09.844Z,1013.20
2023-07-18T13:19:09.848Z,1013.23
2023-07-18T13:20:09.937Z,1013.29
2023-07-18T13:21:10.063Z,1013.31
2023-07-18T13:22:12.795Z,1013.31
2023-07-18T13:23:10.318Z,1013.30
2023-07-18T13:24:10.397Z,1013.35
2023-07-18T13:25:10.509Z,1013.36
2023-07-18T13:26:10.654Z,1013.40
2023-07-18T13:27:10.808Z,1013.40
2023-07-18T13:28:10.977Z,1013.37
2023-07-18T13:29:11.120Z,1013.43
2023-07-18T13:30:11.278Z,1013.36
2023-07-18T13:31:11.437Z,1013.39
2023-07-18T13:32:11.623Z,1013.40
2023-07-18T13:33:11.698Z,1013.41
2023-07-18T13:34:14.194Z,1013.27
2023-07-18T13:35:11.926Z,1013.33
2023-07-18T13:36:12.054Z,1013.36
2023-07-18T13:37:12.149Z,1013.35
2023-07-18T13:38:12.269Z,1013.35
2023-07-18T13:39:12.391Z,1013.39
2023-07-18T13:40:12.516Z,1013.34
2023-07-18T13:41:12.622Z,1013.25
2023-07-18T13:42:12.737Z,1013.18
2023-07-18T13:43:12.843Z,1013.10
2023-07-18T13:44:13.051Z,1013.05
2023-07-18T13:45:13.126Z,1012.94
2023-07-18T13:46:13.643Z,1012.95
2023-07-18T13:47:15.306Z,1012.94
2023-07-18T13:48:13.551Z,1013.01
2023-07-18T13:49:13.609Z,1012.99
2023-07-18T13:51:14.072Z,1013.10
2023-07-18T13:52:14.030Z,1013.08
2023-07-18T13:53:14.177Z,1013.08
2023-07-18T13:54:14.314Z,1013.13
2023-07-18T13:55:14.418Z,1013.20
2023-07-18T13:56:14.530Z,1013.24
2023-07-18T13:57:14.627Z,1013.23
2023-07-18T13:58:14.749Z,1013.22
2023-07-18T13:59:14.846Z,1013.25
2023-07-18T14:00:14.952Z,1013.30
2023-07-18T14:01:15.157Z,1013.29
2023-07-18T14:02:15.226Z,1013.28
2023-07-18T14:03:32.079Z,1013.28
2023-07-18T14:04:16.631Z,1013.25
2023-07-18T14:05:15.699Z,1013.34
2023-07-18T14:06:15.786Z,1013.21
2023-07-18T14:07:15.985Z,1013.27
2023-07-18T14:08:16.037Z,1013.28
2023-07-18T14:09:16.241Z,1013.25
2023-07-18T14:10:16.350Z,1013.24
2023-07-18T14:11:16.432Z,1013.25
2023-07-18T14:12:16.597Z,1013.17
2023-07-18T14:13:16.691Z,1013.16
2023-07-18T14:14:16.801Z,1013.14
2023-07-18T14:15:17.005Z,1013.14
2023-07-18T14:16:17.183Z,1013.15
2023-07-18T14:17:17.337Z,1013.10
2023-07-18T14:18:17.415Z,1013.10
2023-07-18T14:19:17.518Z,1013.17
2023-07-18T14:20:17.623Z,1013.07
2023-07-18T14:21:17.768Z,1013.10
2023-07-18T14:22:17.892Z,1013.07
2023-07-18T14:23:18.422Z,1013.03
2023-07-18T14:24:18.100Z,1013.02
2023-07-18T14:25:18.233Z,1013.02
2023-07-18T14:26:18.613Z,1013.02
2023-07-18T14:27:18.480Z,1012.99
2023-07-18T14:28:18.638Z,1012.99
2023-07-18T14:29:18.747Z,1012.92
2023-07-18T14:30:18.857Z,1013.00
2023-07-18T14:31:19.097Z,1012.95
2023-07-18T14:32:19.102Z,1012.93
2023-07-18T14:33:19.410Z,1012.92
2023-07-18T14:34:19.329Z,1012.93
2023-07-18T14:35:19.441Z,1012.84
2023-07-18T14:36:19.791Z,1012.84
2023-07-18T14:37:19.733Z,1012.79
2023-07-18T14:38:19.886Z,1012.75
2023-07-18T14:39:20.061Z,1012.76
2023-07-18T14:40:20.109Z,1012.74
2023-07-18T14:41:20.303Z,1012.73
2023-07-18T14:42:20.401Z,1012.71
2023-07-18T14:43:20.542Z,1012.73
2023-07-18T14:44:20.686Z,1012.71
2023-07-18T14:45:20.867Z,1012.75
2023-07-18T14:46:21.298Z,1012.69
2023-07-18T14:47:21.057Z,1012.59
2023-07-18T14:48:21.213Z,1012.60
2023-07-18T14:49:21.310Z,1012.59
2023-07-18T14:50:21.502Z,1012.58
2023-07-18T14:51:21.602Z,1012.55
2023-07-18T14:52:21.765Z,1012.53
2023-07-18T14:53:21.871Z,1012.53
2023-07-18T14:54:21.976Z,1012.50
2023-07-18T14:55:22.194Z,1012.49
2023-07-18T14:56:22.402Z,1012.55
2023-07-18T14:57:22.387Z,1012.50
2023-07-18T14:58:22.524Z,1012.46
2023-07-18T14:59:22.635Z,1012.43
2023-07-18T15:00:22.749Z,1012.42
2023-07-18T15:01:22.901Z,1012.40
2023-07-18T15:02:23.020Z,1012.38
2023-07-18T15:03:23.159Z,1012.36
2023-07-18T15:04:23.234Z,1012.42
2023-07-18T15:05:23.338Z,1012.36
2023-07-18T15:06:23.487Z,1012.33
2023-07-18T15:07:23.588Z,1012.32
2023-07-18T15:08:23.724Z,1012.39
2023-07-18T15:09:23.832Z,1012.35
2023-07-18T15:10:24.017Z,1012.38
2023-07-18T15:11:24.110Z,1012.31
2023-07-18T15:12:24.214Z,1012.28
2023-07-18T15:13:24.318Z,1012.25
2023-07-18T15:14:24.459Z,1012.25
2023-07-18T15:15:24.608Z,1012.23
2023-07-18T15:16:24.821Z,1012.21
2023-07-18T15:17:24.924Z,1012.23
2023-07-18T15:18:25.029Z,1012.18
2023-07-18T15:19:25.185Z,1012.21
2023-07-18T15:20:25.341Z,1012.21
2023-07-18T15:21:25.442Z,1012.19
2023-07-18T15:22:25.607Z,1012.20
2023-07-18T15:23:25.806Z,1012.19
2023-07-18T15:24:25.902Z,1012.16
2023-07-18T15:25:26.006Z,1012.15
2023-07-18T15:26:26.169Z,1012.13
2023-07-18T15:27:26.274Z,1012.16
2023-07-18T15:28:26.410Z,1012.09
2023-07-18T15:29:26.486Z,1012.13
2023-07-18T15:30:26.619Z,1012.14
2023-07-18T15:31:26.762Z,1012.08
2023-07-18T15:32:26.856Z,1012.06
2023-07-18T15:33:27.837Z,1012.04
2023-07-18T15:34:27.073Z,1012.05
2023-07-18T15:35:27.202Z,1012.05
2023-07-18T15:36:27.312Z,1012.03
2023-07-18T15:37:27.449Z,1012.01
2023-07-18T15:38:27.601Z,1011.99
2023-07-18T15:39:27.722Z,1011.99
2023-07-18T15:40:27.816Z,1011.97
2023-07-18T15:41:28.012Z,1011.96
2023-07-18T15:42:28.106Z,1011.98
2023-07-18T15:43:28.223Z,1011.92
2023-07-18T15:44:28.396Z,1011.88
2023-07-18T15:45:28.519Z,1011.89
2023-07-18T15:46:28.729Z,1011.83
2023-07-18T15:47:28.772Z,1011.84
2023-07-18T15:48:28.854Z,1011.76
2023-07-18T15:49:28.988Z,1011.83
2023-07-18T15:50:29.103Z,1011.85
2023-07-18T15:51:29.187Z,1011.85
2023-07-18T15:52:29.328Z,1011.84
2023-07-18T15:53:29.492Z,1011.80
2023-07-18T15:54:29.630Z,1011.87
2023-07-18T15:55:29.730Z,1011.83
2023-07-18T15:56:29.810Z,1011.81
2023-07-18T15:57:29.942Z,1011.81
2023-07-18T15:58:30.146Z,1011.82
2023-07-18T15:59:30.234Z,1011.82
2023-07-18T16:00:30.406Z,1011.80
2023-07-18T16:01:30.727Z,1011.81
2023-07-18T16:02:30.701Z,1011.81
2023-07-18T16:03:30.873Z,1011.80
2023-07-18T16:04:30.967Z,1011.76
2023-07-18T16:05:31.040Z,1011.75
2023-07-18T16:06:31.186Z,1011.74
2023-07-18T16:07:31.283Z,1011.74
2023-07-18T16:08:31.394Z,1011.72
2023-07-18T16:09:31.589Z,1011.73
2023-07-18T16:10:31.738Z,1011.69
2023-07-18T16:11:31.837Z,1011.70
2023-07-18T16:12:31.925Z,1011.68
2023-07-18T16:13:32.032Z,1011.76
2023-07-18T16:14:34.163Z,1011.65
2023-07-18T16:15:32.293Z,1011.66
2023-07-18T16:16:32.437Z,1011.69
2023-07-18T16:28:47.667Z,1011.57
2023-07-18T16:29:47.763Z,1011.56
2023-07-18T16:30:47.873Z,1011.57
2023-07-18T16:31:48.062Z,1011.60
2023-07-18T16:32:48.250Z,1011.63
2023-07-18T16:33:48.348Z,1011.56
2023-07-18T16:34:48.456Z,1011.49
2023-07-18T16:35:48.599Z,1011.42
2023-07-18T16:36:48.757Z,1011.38
2023-07-18T16:37:48.849Z,1011.48
2023-07-18T16:38:48.996Z,1011.44
2023-07-18T16:39:49.132Z,1011.46
2023-07-18T16:40:49.236Z,1011.40
2023-07-18T16:41:49.362Z,1011.43
2023-07-18T16:42:49.465Z,1011.41
2023-07-18T16:43:49.638Z,1011.45
2023-07-18T16:44:50.685Z,1011.43
2023-07-18T16:45:49.860Z,1011.46
2023-07-18T16:46:50.009Z,1011.39
2023-07-18T16:47:50.129Z,1011.44